Terminal Aerodrome Forecast
Issued by NWS

Current Version | Previous Version | Graphics & Text | Print | Product List | Glossary On
Versions: 1 2 3 4 5 6 7 8 9 10 11 12 13 14 15 16 17 18 19 20 21 22 23 24 25 26 27 28 29 30 31
000
FTUS41 KILN 271720
TAFLUK
TAF
KLUK 271720Z 2718/2818 VRB03KT P6SM VCSH SCT020 BKN040
      TEMPO 2718/2719 BKN025
     FM271900 07003KT P6SM VCSH SCT025 BKN040
      TEMPO 2719/2723 5SM -SHRA BKN025
     FM280000 07004KT P6SM VCSH BKN040
     FM280200 07003KT 4SM BR SCT040 BKN100
     FM280800 00000KT 1SM BR FEW020 SCT250
      TEMPO 2810/2812 1/2SM FG SCT002
     FM281300 VRB03KT P6SM FEW020 SCT250=

USA.gov is the U.S. government's official web portal to all federal, state and local government web resources and services.